LXJ230 KCHA-KCLT
Flight info
| Callsign | LXJ230 |
|---|---|
| Flight time | 0h 50m |
| Altitude | 35000 |
| Route | VXV COMDY FILPZ4 |
| Aircraft | C25C/M-BGS/L |
Departure
| Time | 2026-04-26 22:44 |
|---|---|
| Airport | Chattanooga Metropolitan Airport (Lovell Field) (KCHA) |
Arrival
| Time | 2026-04-26 23:34 |
|---|---|
| Airport | Charlotte Douglas International Airport (KCLT) |
| Time | Latitude | Longitude | Altitude | Speed | Heading |
|---|---|---|---|---|---|
| 2026-04-26 22:35 | 35.03299 | -85.20622 | 673 ft | 0 kts | 285° |
| 2026-04-26 22:39 | 35.03299 | -85.20620 | 673 ft | 2 kts | 297° |
| 2026-04-26 22:39 | 35.03291 | -85.20614 | 673 ft | 0 kts | 12° |
| 2026-04-26 22:40 | 35.03296 | -85.20612 | 673 ft | 3 kts | 12° |
| 2026-04-26 22:40 | 35.03316 | -85.20568 | 673 ft | 11 kts | 110° |
| 2026-04-26 22:40 | 35.03266 | -85.20519 | 673 ft | 9 kts | 195° |
| 2026-04-26 22:41 | 35.03206 | -85.20550 | 673 ft | 10 kts | 200° |
| 2026-04-26 22:41 | 35.03133 | -85.20577 | 673 ft | 12 kts | 195° |
| 2026-04-26 22:41 | 35.03051 | -85.20605 | 673 ft | 13 kts | 195° |
| 2026-04-26 22:41 | 35.02980 | -85.20566 | 673 ft | 13 kts | 108° |
| 2026-04-26 22:42 | 35.02956 | -85.20462 | 674 ft | 13 kts | 108° |
| 2026-04-26 22:42 | 35.02904 | -85.20381 | 673 ft | 13 kts | 189° |
| 2026-04-26 22:42 | 35.02811 | -85.20414 | 673 ft | 15 kts | 197° |
| 2026-04-26 22:42 | 35.02685 | -85.20459 | 672 ft | 23 kts | 196° |
| 2026-04-26 22:43 | 35.02507 | -85.20522 | 672 ft | 30 kts | 198° |
| 2026-04-26 22:43 | 35.02319 | -85.20594 | 671 ft | 24 kts | 200° |
| 2026-04-26 22:43 | 35.02280 | -85.20738 | 672 ft | 20 kts | 334° |
| 2026-04-26 22:43 | 35.02493 | -85.20667 | 671 ft | 72 kts | 16° |
| 2026-04-26 22:44 | 35.03310 | -85.20369 | 841 ft | 159 kts | 17° |
| 2026-04-26 22:44 | 35.04463 | -85.19930 | 1636 ft | 199 kts | 17° |
| 2026-04-26 22:44 | 35.05960 | -85.19338 | 2523 ft | 247 kts | 19° |
| 2026-04-26 22:44 | 35.07624 | -85.18495 | 3493 ft | 269 kts | 34° |
| 2026-04-26 22:45 | 35.08872 | -85.17015 | 5534 ft | 229 kts | 50° |
| 2026-04-26 22:45 | 35.09913 | -85.15482 | 6738 ft | 247 kts | 51° |
| 2026-04-26 22:45 | 35.11098 | -85.13779 | 7202 ft | 271 kts | 48° |
| 2026-04-26 22:45 | 35.12269 | -85.12046 | 8073 ft | 264 kts | 54° |
| 2026-04-26 22:46 | 35.13339 | -85.10209 | 8703 ft | 269 kts | 56° |
| 2026-04-26 22:46 | 35.14437 | -85.08296 | 9061 ft | 282 kts | 54° |
| 2026-04-26 22:46 | 35.15621 | -85.06338 | 9991 ft | 286 kts | 54° |
| 2026-04-26 22:46 | 35.16836 | -85.04455 | 11358 ft | 277 kts | 52° |
| 2026-04-26 22:47 | 35.18097 | -85.02634 | 12349 ft | 287 kts | 50° |
| 2026-04-26 22:47 | 35.19406 | -85.00707 | 13146 ft | 302 kts | 51° |
| 2026-04-26 22:47 | 35.20739 | -84.98689 | 14150 ft | 304 kts | 51° |
| 2026-04-26 22:47 | 35.22003 | -84.96621 | 15211 ft | 303 kts | 52° |
| 2026-04-26 22:48 | 35.23232 | -84.94534 | 16049 ft | 311 kts | 52° |
| 2026-04-26 22:48 | 35.24534 | -84.92366 | 16753 ft | 322 kts | 51° |
| 2026-04-26 22:48 | 35.26015 | -84.90266 | 17474 ft | 330 kts | 44° |
| 2026-04-26 22:48 | 35.27584 | -84.88169 | 18212 ft | 339 kts | 46° |
| 2026-04-26 22:49 | 35.29074 | -84.85879 | 18868 ft | 348 kts | 50° |
| 2026-04-26 22:49 | 35.30534 | -84.83512 | 19731 ft | 346 kts | 49° |
| 2026-04-26 22:49 | 35.32010 | -84.81208 | 20742 ft | 342 kts | 48° |
| 2026-04-26 22:49 | 35.33490 | -84.78943 | 21787 ft | 338 kts | 47° |
| 2026-04-26 22:50 | 35.34900 | -84.76642 | 22863 ft | 339 kts | 56° |
| 2026-04-26 22:50 | 35.35632 | -84.73887 | 23929 ft | 342 kts | 75° |
| 2026-04-26 22:50 | 35.36048 | -84.71029 | 24816 ft | 342 kts | 77° |
| 2026-04-26 22:50 | 35.36358 | -84.68116 | 25552 ft | 348 kts | 79° |
| 2026-04-26 22:51 | 35.36679 | -84.65139 | 26168 ft | 356 kts | 77° |
| 2026-04-26 22:51 | 35.37052 | -84.62101 | 26787 ft | 363 kts | 76° |
| 2026-04-26 22:51 | 35.37438 | -84.59014 | 27421 ft | 369 kts | 76° |
| 2026-04-26 22:51 | 35.37808 | -84.55879 | 28076 ft | 374 kts | 76° |
| 2026-04-26 22:52 | 35.38179 | -84.52705 | 28754 ft | 378 kts | 76° |
| 2026-04-26 22:52 | 35.38558 | -84.49502 | 29436 ft | 381 kts | 76° |
| 2026-04-26 22:52 | 35.38942 | -84.46276 | 30123 ft | 384 kts | 76° |
| 2026-04-26 22:52 | 35.39326 | -84.43066 | 30712 ft | 386 kts | 76° |
| 2026-04-26 22:53 | 35.39706 | -84.39795 | 31318 ft | 388 kts | 76° |
| 2026-04-26 22:53 | 35.40092 | -84.36519 | 31906 ft | 388 kts | 76° |
| 2026-04-26 22:53 | 35.40475 | -84.33248 | 32543 ft | 388 kts | 75° |
| 2026-04-26 22:53 | 35.40859 | -84.29975 | 33148 ft | 389 kts | 75° |
| 2026-04-26 22:54 | 35.41250 | -84.26653 | 33423 ft | 399 kts | 75° |
| 2026-04-26 22:54 | 35.41648 | -84.23241 | 33667 ft | 408 kts | 75° |
| 2026-04-26 22:54 | 35.42054 | -84.19754 | 33921 ft | 417 kts | 76° |
| 2026-04-26 22:54 | 35.42462 | -84.16207 | 34147 ft | 423 kts | 76° |
| 2026-04-26 22:55 | 35.42871 | -84.12650 | 34368 ft | 429 kts | 76° |
| 2026-04-26 22:55 | 35.43296 | -84.09003 | 34590 ft | 434 kts | 76° |
| 2026-04-26 22:55 | 35.43714 | -84.05323 | 34815 ft | 437 kts | 76° |
| 2026-04-26 22:55 | 35.44142 | -84.01598 | 34924 ft | 444 kts | 76° |
| 2026-04-26 22:56 | 35.44575 | -83.97817 | 34967 ft | 451 kts | 76° |
| 2026-04-26 22:56 | 35.45455 | -83.90078 | 35004 ft | 464 kts | 76° |
| 2026-04-26 22:57 | 35.46349 | -83.82169 | 34997 ft | 468 kts | 76° |
| 2026-04-26 22:57 | 35.47224 | -83.74348 | 34988 ft | 457 kts | 76° |
| 2026-04-26 22:58 | 35.48083 | -83.66686 | 34984 ft | 450 kts | 76° |
| 2026-04-26 22:58 | 35.48922 | -83.59137 | 34972 ft | 443 kts | 76° |
| 2026-04-26 22:59 | 35.49743 | -83.51722 | 34975 ft | 437 kts | 76° |
| 2026-04-26 22:59 | 35.50540 | -83.44433 | 34738 ft | 427 kts | 76° |
| 2026-04-26 22:59 | 35.50939 | -83.40825 | 34467 ft | 425 kts | 76° |
| 2026-04-26 23:00 | 35.51332 | -83.37234 | 34184 ft | 424 kts | 76° |
| 2026-04-26 23:00 | 35.51719 | -83.33652 | 33888 ft | 423 kts | 76° |
| 2026-04-26 23:00 | 35.52107 | -83.30069 | 33563 ft | 422 kts | 76° |
| 2026-04-26 23:00 | 35.52491 | -83.26546 | 33247 ft | 421 kts | 76° |
| 2026-04-26 23:01 | 35.52875 | -83.22987 | 32931 ft | 421 kts | 76° |
| 2026-04-26 23:01 | 35.53258 | -83.19427 | 32618 ft | 420 kts | 76° |
| 2026-04-26 23:01 | 35.53637 | -83.15868 | 32313 ft | 420 kts | 76° |
| 2026-04-26 23:01 | 35.54018 | -83.12318 | 32027 ft | 418 kts | 76° |
| 2026-04-26 23:02 | 35.54394 | -83.08781 | 31721 ft | 417 kts | 76° |
| 2026-04-26 23:02 | 35.54772 | -83.05258 | 31427 ft | 416 kts | 76° |
| 2026-04-26 23:02 | 35.55143 | -83.01731 | 31133 ft | 416 kts | 76° |
| 2026-04-26 23:02 | 35.55514 | -82.98211 | 30787 ft | 416 kts | 77° |
| 2026-04-26 23:03 | 35.55879 | -82.94680 | 30428 ft | 416 kts | 76° |
| 2026-04-26 23:03 | 35.56264 | -82.91141 | 30076 ft | 417 kts | 77° |
| 2026-04-26 23:03 | 35.56635 | -82.87608 | 29673 ft | 417 kts | 77° |
| 2026-04-26 23:03 | 35.57003 | -82.84073 | 29263 ft | 417 kts | 77° |
| 2026-04-26 23:04 | 35.57365 | -82.80542 | 28867 ft | 416 kts | 77° |
| 2026-04-26 23:04 | 35.57733 | -82.77062 | 28494 ft | 415 kts | 77° |
| 2026-04-26 23:04 | 35.58094 | -82.73542 | 28104 ft | 415 kts | 78° |
| 2026-04-26 23:04 | 35.58460 | -82.70038 | 27722 ft | 413 kts | 78° |
| 2026-04-26 23:05 | 35.58818 | -82.66531 | 27341 ft | 412 kts | 78° |
| 2026-04-26 23:05 | 35.59181 | -82.63044 | 26968 ft | 411 kts | 78° |
| 2026-04-26 23:05 | 35.59546 | -82.59563 | 26589 ft | 410 kts | 78° |
| 2026-04-26 23:05 | 35.59886 | -82.56083 | 26219 ft | 409 kts | 78° |
| 2026-04-26 23:06 | 35.60242 | -82.52610 | 25850 ft | 408 kts | 78° |
| 2026-04-26 23:06 | 35.60593 | -82.49150 | 25438 ft | 408 kts | 79° |
| 2026-04-26 23:06 | 35.60945 | -82.45735 | 25085 ft | 407 kts | 79° |
| 2026-04-26 23:06 | 35.61287 | -82.42289 | 24732 ft | 406 kts | 79° |
| 2026-04-26 23:07 | 35.61637 | -82.38846 | 24405 ft | 405 kts | 79° |
| 2026-04-26 23:07 | 35.61864 | -82.36572 | 24176 ft | 405 kts | 79° |
| 2026-04-26 23:07 | 35.62326 | -82.31984 | 23719 ft | 403 kts | 79° |
| 2026-04-26 23:07 | 35.62549 | -82.28553 | 23335 ft | 405 kts | 89° |
| 2026-04-26 23:08 | 35.61971 | -82.25142 | 22919 ft | 409 kts | 103° |
| 2026-04-26 23:08 | 35.61235 | -82.21775 | 22528 ft | 407 kts | 103° |
| 2026-04-26 23:08 | 35.60427 | -82.18444 | 22144 ft | 406 kts | 104° |
| 2026-04-26 23:08 | 35.59626 | -82.15132 | 21763 ft | 402 kts | 103° |
| 2026-04-26 23:09 | 35.58888 | -82.11922 | 21394 ft | 387 kts | 103° |
| 2026-04-26 23:09 | 35.58173 | -82.08793 | 20969 ft | 374 kts | 103° |
| 2026-04-26 23:09 | 35.57465 | -82.05773 | 20595 ft | 362 kts | 104° |
| 2026-04-26 23:09 | 35.56776 | -82.02834 | 20224 ft | 354 kts | 103° |
| 2026-04-26 23:10 | 35.56101 | -81.99952 | 19857 ft | 349 kts | 103° |
| 2026-04-26 23:10 | 35.55438 | -81.97106 | 19498 ft | 346 kts | 103° |
| 2026-04-26 23:10 | 35.54773 | -81.94273 | 19140 ft | 344 kts | 103° |
| 2026-04-26 23:10 | 35.54114 | -81.91455 | 18789 ft | 342 kts | 104° |
| 2026-04-26 23:11 | 35.53248 | -81.88748 | 18431 ft | 342 kts | 116° |
| 2026-04-26 23:11 | 35.51975 | -81.86288 | 18045 ft | 339 kts | 121° |
| 2026-04-26 23:11 | 35.50712 | -81.83858 | 17645 ft | 335 kts | 119° |
| 2026-04-26 23:11 | 35.49602 | -81.81368 | 17253 ft | 330 kts | 115° |
| 2026-04-26 23:12 | 35.48564 | -81.78881 | 16867 ft | 325 kts | 115° |
| 2026-04-26 23:12 | 35.47500 | -81.76476 | 16481 ft | 321 kts | 116° |
| 2026-04-26 23:12 | 35.46431 | -81.74102 | 16099 ft | 316 kts | 116° |
| 2026-04-26 23:12 | 35.45381 | -81.71752 | 15720 ft | 312 kts | 116° |
| 2026-04-26 23:13 | 35.44350 | -81.69435 | 15349 ft | 308 kts | 115° |
| 2026-04-26 23:13 | 35.43455 | -81.67080 | 14977 ft | 302 kts | 107° |
| 2026-04-26 23:13 | 35.42805 | -81.64642 | 14620 ft | 300 kts | 106° |
| 2026-04-26 23:13 | 35.42124 | -81.62238 | 14266 ft | 298 kts | 107° |
| 2026-04-26 23:14 | 35.41451 | -81.59836 | 13913 ft | 296 kts | 107° |
| 2026-04-26 23:14 | 35.40769 | -81.57460 | 13530 ft | 295 kts | 107° |
| 2026-04-26 23:14 | 35.40329 | -81.55884 | 13244 ft | 294 kts | 106° |
| 2026-04-26 23:14 | 35.39431 | -81.52725 | 12738 ft | 293 kts | 107° |
| 2026-04-26 23:15 | 35.38776 | -81.50400 | 12364 ft | 291 kts | 106° |
| 2026-04-26 23:15 | 35.38115 | -81.48063 | 11994 ft | 289 kts | 107° |
| 2026-04-26 23:15 | 35.37451 | -81.45735 | 11624 ft | 288 kts | 107° |
| 2026-04-26 23:15 | 35.37019 | -81.44193 | 11383 ft | 288 kts | 107° |
| 2026-04-26 23:16 | 35.36357 | -81.41881 | 11094 ft | 285 kts | 107° |
| 2026-04-26 23:16 | 35.35717 | -81.39622 | 11017 ft | 275 kts | 107° |
| 2026-04-26 23:16 | 35.35101 | -81.37446 | 10990 ft | 266 kts | 106° |
| 2026-04-26 23:16 | 35.34498 | -81.35333 | 10988 ft | 259 kts | 107° |
| 2026-04-26 23:17 | 35.33914 | -81.33274 | 10988 ft | 253 kts | 106° |
| 2026-04-26 23:17 | 35.33338 | -81.31262 | 10979 ft | 249 kts | 107° |
| 2026-04-26 23:17 | 35.32767 | -81.29267 | 10917 ft | 249 kts | 107° |
| 2026-04-26 23:17 | 35.32189 | -81.27259 | 10837 ft | 250 kts | 106° |
| 2026-04-26 23:18 | 35.31588 | -81.25254 | 10747 ft | 250 kts | 107° |
| 2026-04-26 23:18 | 35.30974 | -81.23263 | 10568 ft | 250 kts | 107° |
| 2026-04-26 23:18 | 35.30382 | -81.21278 | 10458 ft | 246 kts | 106° |
| 2026-04-26 23:18 | 35.29824 | -81.19325 | 10365 ft | 241 kts | 105° |
| 2026-04-26 23:19 | 35.29308 | -81.17419 | 10262 ft | 237 kts | 104° |
| 2026-04-26 23:19 | 35.28803 | -81.15501 | 10134 ft | 236 kts | 104° |
| 2026-04-26 23:19 | 35.28302 | -81.13601 | 10065 ft | 233 kts | 104° |
| 2026-04-26 23:19 | 35.27799 | -81.11723 | 10051 ft | 231 kts | 105° |
| 2026-04-26 23:20 | 35.27236 | -81.09873 | 10048 ft | 234 kts | 112° |
| 2026-04-26 23:20 | 35.26246 | -81.08279 | 10073 ft | 240 kts | 134° |
| 2026-04-26 23:20 | 35.24826 | -81.07147 | 10051 ft | 248 kts | 151° |
| 2026-04-26 23:20 | 35.23149 | -81.06558 | 10050 ft | 255 kts | 169° |
| 2026-04-26 23:21 | 35.21370 | -81.06543 | 10094 ft | 256 kts | 180° |
| 2026-04-26 23:21 | 35.19587 | -81.06630 | 10095 ft | 256 kts | 178° |
| 2026-04-26 23:21 | 35.17802 | -81.06573 | 10075 ft | 255 kts | 174° |
| 2026-04-26 23:21 | 35.16023 | -81.06460 | 10056 ft | 256 kts | 174° |
| 2026-04-26 23:22 | 35.14248 | -81.06316 | 10076 ft | 254 kts | 172° |
| 2026-04-26 23:22 | 35.12485 | -81.06152 | 10067 ft | 255 kts | 172° |
| 2026-04-26 23:22 | 35.10710 | -81.06005 | 10044 ft | 256 kts | 173° |
| 2026-04-26 23:22 | 35.08974 | -81.05770 | 10063 ft | 253 kts | 169° |
| 2026-04-26 23:23 | 35.07215 | -81.05552 | 10061 ft | 254 kts | 173° |
| 2026-04-26 23:23 | 35.05449 | -81.05401 | 10063 ft | 254 kts | 173° |
| 2026-04-26 23:23 | 35.03686 | -81.05260 | 10062 ft | 254 kts | 173° |
| 2026-04-26 23:23 | 35.01919 | -81.05098 | 10063 ft | 253 kts | 172° |
| 2026-04-26 23:24 | 35.00160 | -81.04942 | 10063 ft | 254 kts | 172° |
| 2026-04-26 23:24 | 34.98398 | -81.04779 | 10062 ft | 254 kts | 172° |
| 2026-04-26 23:24 | 34.96636 | -81.04627 | 10062 ft | 254 kts | 172° |
| 2026-04-26 23:24 | 34.94872 | -81.04465 | 10062 ft | 254 kts | 173° |
| 2026-04-26 23:25 | 34.93105 | -81.04380 | 10059 ft | 254 kts | 175° |
| 2026-04-26 23:25 | 34.91346 | -81.04192 | 10002 ft | 254 kts | 165° |
| 2026-04-26 23:25 | 34.89675 | -81.03449 | 9795 ft | 258 kts | 148° |
| 2026-04-26 23:25 | 34.88283 | -81.02146 | 9610 ft | 254 kts | 130° |
| 2026-04-26 23:26 | 34.87310 | -81.00359 | 9247 ft | 255 kts | 110° |
| 2026-04-26 23:26 | 34.86934 | -80.98330 | 8822 ft | 238 kts | 89° |
| 2026-04-26 23:26 | 34.86971 | -80.96355 | 8349 ft | 229 kts | 84° |
| 2026-04-26 23:26 | 34.87048 | -80.94433 | 7836 ft | 226 kts | 83° |
| 2026-04-26 23:27 | 34.87137 | -80.92526 | 7249 ft | 227 kts | 82° |
| 2026-04-26 23:27 | 34.87531 | -80.90725 | 6864 ft | 214 kts | 58° |
| 2026-04-26 23:27 | 34.88491 | -80.89436 | 6445 ft | 205 kts | 30° |
| 2026-04-26 23:27 | 34.89820 | -80.88981 | 6039 ft | 199 kts | 359° |
| 2026-04-26 23:28 | 34.91139 | -80.89392 | 5698 ft | 194 kts | 339° |
| 2026-04-26 23:28 | 34.92355 | -80.90090 | 5325 ft | 191 kts | 338° |
| 2026-04-26 23:28 | 34.93544 | -80.90810 | 4959 ft | 190 kts | 339° |
| 2026-04-26 23:28 | 34.94770 | -80.91304 | 4695 ft | 181 kts | 352° |
| 2026-04-26 23:29 | 34.95990 | -80.91527 | 4437 ft | 175 kts | 355° |
| 2026-04-26 23:29 | 34.97195 | -80.91725 | 4175 ft | 175 kts | 355° |
| 2026-04-26 23:29 | 34.98403 | -80.91953 | 4004 ft | 176 kts | 355° |
| 2026-04-26 23:29 | 34.99631 | -80.92200 | 3807 ft | 180 kts | 353° |
| 2026-04-26 23:30 | 35.00822 | -80.92500 | 3830 ft | 172 kts | 351° |
| 2026-04-26 23:30 | 35.01978 | -80.92895 | 3715 ft | 172 kts | 351° |
| 2026-04-26 23:30 | 35.03147 | -80.93289 | 3585 ft | 176 kts | 349° |
| 2026-04-26 23:30 | 35.04389 | -80.93602 | 3609 ft | 185 kts | 1° |
| 2026-04-26 23:31 | 35.05715 | -80.93594 | 3531 ft | 196 kts | 5° |
| 2026-04-26 23:31 | 35.07092 | -80.93535 | 3474 ft | 201 kts | 7° |
| 2026-04-26 23:31 | 35.08502 | -80.93439 | 3392 ft | 205 kts | 6° |
| 2026-04-26 23:31 | 35.09932 | -80.93387 | 3186 ft | 206 kts | 6° |
| 2026-04-26 23:32 | 35.11354 | -80.93339 | 3076 ft | 199 kts | 6° |
| 2026-04-26 23:32 | 35.12653 | -80.93302 | 2964 ft | 178 kts | 6° |
| 2026-04-26 23:32 | 35.13869 | -80.93278 | 2650 ft | 169 kts | 6° |
| 2026-04-26 23:32 | 35.15017 | -80.93237 | 2322 ft | 156 kts | 7° |
| 2026-04-26 23:33 | 35.15966 | -80.93193 | 2017 ft | 124 kts | 7° |
| 2026-04-26 23:33 | 35.16763 | -80.93197 | 1690 ft | 110 kts | 6° |
| 2026-04-26 23:33 | 35.17502 | -80.93224 | 1416 ft | 105 kts | 8° |
| 2026-04-26 23:33 | 35.18228 | -80.93271 | 1182 ft | 108 kts | 357° |
| 2026-04-26 23:34 | 35.18975 | -80.93314 | 1029 ft | 107 kts | 355° |
| 2026-04-26 23:34 | 35.19734 | -80.93384 | 820 ft | 110 kts | 356° |
| 2026-04-26 23:34 | 35.20470 | -80.93450 | 711 ft | 97 kts | 358° |
| 2026-04-26 23:34 | 35.21017 | -80.93456 | 710 ft | 47 kts | 19° |
| 2026-04-26 23:35 | 35.21095 | -80.93394 | 711 ft | 0 kts | 41° |
| 2026-04-26 23:35 | 35.21101 | -80.93385 | 714 ft | 7 kts | 54° |
| 2026-04-26 23:35 | 35.21133 | -80.93289 | 712 ft | 10 kts | 77° |
| 2026-04-26 23:35 | 35.21143 | -80.93204 | 713 ft | 10 kts | 85° |
| 2026-04-26 23:36 | 35.21144 | -80.93120 | 712 ft | 10 kts | 93° |
| 2026-04-26 23:36 | 35.21136 | -80.93039 | 713 ft | 10 kts | 99° |
| 2026-04-26 23:36 | 35.20530 | -80.93455 | 702 ft | 0 kts | 358° |